Time;durP1;ratioP1;P1;durP2;ratioP2;P2;SDS_P1;SDS_P2;PMS_P1;PMS_P2;Temp;Humidity;BMP_temperature;BMP_pressure;BME280_temperature;BME280_humidity;BME280_pressure;Samples;Min_cycle;Max_cycle;Signal;HPM_P1;HPM_P2
2023/08/15 00:02:05;;;;;;;6.68;5.75;;;;;;;-145.00;63.73;72485.06;4974009;28;20050;-75
2023/08/15 00:04:32;;;;;;;10.55;6.57;;;;;;;-145.00;63.72;72485.06;4971747;28;20043;-75
2023/08/15 00:06:58;;;;;;;8.00;6.53;;;;;;;-145.00;63.58;72485.06;4971881;28;20051;-76
2023/08/15 00:09:25;;;;;;;8.88;6.57;;;;;;;-145.00;64.00;72485.06;4972032;28;20053;-75
2023/08/15 00:11:52;;;;;;;8.57;6.93;;;;;;;-145.00;64.06;72487.13;4972058;28;20047;-75
2023/08/15 00:14:18;;;;;;;11.52;7.00;;;;;;;-145.00;65.24;72537.09;4971498;28;20051;-76
2023/08/15 00:16:46;;;;;;;9.65;7.07;;;;;;;-145.00;66.06;72551.66;4971511;28;20051;-75
2023/08/15 00:19:12;;;;;;;8.23;6.38;;;;;;;-145.00;64.95;72526.69;4971227;28;20043;-76
2023/08/15 00:21:39;;;;;;;8.00;6.70;;;;;;;-145.00;64.80;72522.53;4972025;28;20047;-75
2023/08/15 00:24:06;;;;;;;7.30;6.13;;;;;;;-145.00;65.00;72522.53;4962601;28;20051;-76
2023/08/15 00:26:32;;;;;;;7.93;6.35;;;;;;;-145.00;65.17;72522.53;5001357;28;20049;-76
2023/08/15 00:28:59;;;;;;;9.57;6.80;;;;;;;-145.00;64.90;72516.28;4967691;28;20043;-75
2023/08/15 00:31:25;;;;;;;10.00;6.95;;;;;;;-145.00;64.87;72516.28;4966573;28;20043;-76
2023/08/15 00:33:53;;;;;;;8.18;6.50;;;;;;;-145.00;65.12;72518.34;4974685;28;20046;-76
2023/08/15 00:36:20;;;;;;;8.88;6.53;;;;;;;-145.00;65.50;72524.59;4974294;28;20487;-75
2023/08/15 00:38:46;;;;;;;8.63;6.65;;;;;;;-145.00;65.30;72516.28;4974578;28;20054;-76
2023/08/15 00:41:13;;;;;;;7.68;6.70;;;;;;;-145.00;65.04;72518.34;4974493;28;20050;-76
2023/08/15 00:43:39;;;;;;;7.20;6.13;;;;;;;-145.00;64.74;72520.44;4974756;28;20047;-76
2023/08/15 00:46:08;;;;;;;8.00;6.35;;;;;;;-145.00;64.66;72526.69;4974260;28;20049;-76
2023/08/15 00:48:36;;;;;;;8.73;6.57;;;;;;;-145.00;65.21;72526.69;4974890;28;20043;-75
2023/08/15 00:51:04;;;;;;;11.05;6.82;;;;;;;-145.00;65.18;72524.59;4974547;28;20076;-75
2023/08/15 00:53:33;;;;;;;8.10;6.03;;;;;;;-145.00;65.35;72522.53;4975215;28;20050;-75
2023/08/15 00:56:00;;;;;;;7.93;6.38;;;;;;;-145.00;65.35;72522.53;4974386;28;20388;-76
2023/08/15 00:58:29;;;;;;;8.63;6.22;;;;;;;-145.00;65.27;72522.53;4974337;28;20035;-76
2023/08/15 01:00:56;;;;;;;6.75;6.05;;;;;;;-145.00;65.48;72522.53;4976384;28;20058;-76
2023/08/15 01:03:22;;;;;;;7.90;6.85;;;;;;;-145.00;65.89;72535.00;4977529;28;20043;-75
2023/08/15 01:05:50;;;;;;;8.25;6.00;;;;;;;-145.00;65.66;72530.84;4974103;28;20046;-75
2023/08/15 01:08:18;;;;;;;8.82;6.10;;;;;;;-145.00;65.41;72522.53;4973759;28;20198;-76
2023/08/15 01:10:45;;;;;;;7.30;6.40;;;;;;;-145.00;65.38;72526.69;4974219;28;20601;-75
2023/08/15 01:13:19;;;;;;;7.32;5.50;;;;;;;-145.00;65.19;72526.69;4974685;28;20054;-75
2023/08/15 01:15:49;;;;;;;8.95;6.40;;;;;;;-145.00;64.97;72526.69;4974688;28;20101;-75
2023/08/15 01:18:21;;;;;;;8.63;6.53;;;;;;;-145.00;65.44;72537.09;4974671;28;20054;-75
2023/08/15 01:20:49;;;;;;;7.53;6.40;;;;;;;-145.00;65.88;72551.66;4974136;28;20043;-75
2023/08/15 01:23:24;;;;;;;7.47;5.82;;;;;;;-145.00;65.59;72549.56;4973378;28;20047;-75
2023/08/15 01:25:55;;;;;;;8.98;6.10;;;;;;;-145.00;65.52;72543.34;4973696;28;20426;-76
2023/08/15 01:28:22;;;;;;;7.82;6.18;;;;;;;-145.00;65.56;72535.00;4981957;28;21297;-75
2023/08/15 01:30:55;;;;;;;6.30;5.70;;;;;;;-145.00;65.73;72535.00;4955220;28;20411;-75
2023/08/15 01:33:26;;;;;;;8.15;6.25;;;;;;;-145.00;65.94;72543.34;4954172;28;20059;-75
2023/08/15 01:36:00;;;;;;;7.05;5.82;;;;;;;-145.00;65.90;72547.50;4962743;28;20116;-76
2023/08/15 01:38:30;;;;;;;7.25;5.90;;;;;;;-145.00;65.64;72551.66;4980583;28;20039;-74
2023/08/15 01:41:01;;;;;;;8.60;6.15;;;;;;;-145.00;65.83;72549.56;4974033;28;20057;-73
2023/08/15 01:43:28;;;;;;;6.32;5.72;;;;;;;-145.00;66.01;72547.50;4972929;28;20055;-76
2023/08/15 01:45:57;;;;;;;6.95;5.93;;;;;;;-145.00;65.83;72543.34;4977014;28;20053;-76
2023/08/15 01:48:23;;;;;;;8.85;6.30;;;;;;;-145.00;65.78;72545.41;4984871;28;20479;-77
2023/08/15 01:50:50;;;;;;;9.32;6.72;;;;;;;-145.00;66.09;72551.66;4981546;28;20093;-75
2023/08/15 01:53:16;;;;;;;7.55;6.43;;;;;;;-145.00;65.96;72547.50;4979972;28;20046;-74
2023/08/15 01:55:43;;;;;;;7.40;6.28;;;;;;;-145.00;66.32;72549.56;4978762;28;20050;-75
2023/08/15 01:58:11;;;;;;;6.97;6.25;;;;;;;-145.00;66.71;72566.22;4976053;28;20050;-75
2023/08/15 02:00:37;;;;;;;6.70;5.70;;;;;;;-145.00;66.39;72560.00;4964747;28;20050;-74
2023/08/15 02:03:04;;;;;;;8.10;6.25;;;;;;;-145.00;66.18;72545.41;4957875;28;20057;-75
2023/08/15 02:05:31;;;;;;;9.45;6.10;;;;;;;-145.00;65.94;72547.50;4960316;28;20491;-74
2023/08/15 02:07:57;;;;;;;7.32;6.40;;;;;;;-145.00;66.09;72543.34;4974494;28;20615;-75
2023/08/15 02:10:24;;;;;;;7.88;6.82;;;;;;;-145.00;66.22;72547.50;4973681;28;20039;-75
2023/08/15 02:12:50;;;;;;;6.97;5.90;;;;;;;-145.00;66.17;72551.66;4974128;28;20050;-77
2023/08/15 02:15:18;;;;;;;7.75;6.40;;;;;;;-145.00;66.63;72557.91;4974509;28;20049;-76
2023/08/15 02:17:45;;;;;;;7.82;6.22;;;;;;;-145.00;66.43;72564.16;4939108;28;20138;-77
2023/08/15 02:20:12;;;;;;;7.95;6.75;;;;;;;-145.00;65.94;72551.66;4939367;28;20052;-76
2023/08/15 02:22:39;;;;;;;10.25;6.25;;;;;;;-145.00;65.76;72555.81;4940040;28;20044;-76
2023/08/15 02:25:06;;;;;;;8.82;6.10;;;;;;;-145.00;65.72;72553.75;4973019;28;20046;-76
2023/08/15 02:27:32;;;;;;;7.65;6.82;;;;;;;-145.00;65.55;72551.66;4977846;28;20414;-76
2023/08/15 02:29:59;;;;;;;7.40;6.20;;;;;;;-145.00;65.66;72553.75;4978425;28;20043;-76
2023/08/15 02:32:27;;;;;;;8.30;6.93;;;;;;;-145.00;65.63;72553.75;4982336;28;20046;-75
2023/08/15 02:34:53;;;;;;;8.38;6.18;;;;;;;-145.00;65.57;72572.47;4977493;28;20038;-76
2023/08/15 02:37:20;;;;;;;7.53;6.68;;;;;;;-145.00;65.63;72576.63;4976963;28;20049;-76
2023/08/15 02:39:46;;;;;;;9.38;6.28;;;;;;;-145.00;66.01;72582.88;4974860;28;20047;-76
2023/08/15 02:42:13;;;;;;;8.13;6.68;;;;;;;-145.00;66.21;72580.81;4973237;28;20047;-77
2023/08/15 02:44:39;;;;;;;8.73;6.13;;;;;;;-145.00;66.33;72591.22;4973440;28;20047;-76
2023/08/15 02:47:06;;;;;;;9.07;6.60;;;;;;;-145.00;66.46;72589.13;4973192;28;20491;-76
2023/08/15 02:49:34;;;;;;;8.85;6.40;;;;;;;-145.00;66.40;72593.28;4974417;28;20049;-77
2023/08/15 02:52:01;;;;;;;9.32;7.10;;;;;;;-145.00;66.52;72593.28;4974253;28;20043;-76
2023/08/15 02:54:27;;;;;;;8.93;6.55;;;;;;;-145.00;66.60;72605.78;4973604;28;20049;-76
2023/08/15 02:56:54;;;;;;;7.45;6.32;;;;;;;-145.00;66.96;72614.09;4972916;28;20051;-76
2023/08/15 02:59:20;;;;;;;7.28;6.25;;;;;;;-145.00;66.98;72614.09;4977883;28;20050;-76
2023/08/15 03:01:47;;;;;;;7.90;6.50;;;;;;;-145.00;67.15;72622.44;4972984;28;20047;-76
2023/08/15 03:04:14;;;;;;;9.57;6.45;;;;;;;-145.00;67.13;72622.44;4953080;28;20043;-76
2023/08/15 03:06:42;;;;;;;7.40;6.13;;;;;;;-145.00;67.30;72626.59;4953593;28;20507;-76
2023/08/15 03:09:09;;;;;;;8.20;6.93;;;;;;;-145.00;67.45;72626.59;4953209;28;20064;-76
2023/08/15 03:11:35;;;;;;;7.78;6.80;;;;;;;-145.00;67.38;72624.53;4963324;28;20042;-76
2023/08/15 03:14:03;;;;;;;8.30;6.95;;;;;;;-145.00;67.59;72626.59;4972324;28;20049;-75
2023/08/15 03:16:29;;;;;;;7.05;6.35;;;;;;;-145.00;67.42;72626.59;4972924;28;20062;-76
2023/08/15 03:18:56;;;;;;;8.65;6.50;;;;;;;-145.00;67.23;72626.59;4972445;28;20050;-76
2023/08/15 03:21:22;;;;;;;9.60;6.35;;;;;;;-145.00;67.26;72620.34;4971435;28;20491;-76
2023/08/15 03:23:50;;;;;;;6.88;6.18;;;;;;;-145.00;66.84;72620.34;4972585;28;20498;-76
2023/08/15 03:26:17;;;;;;;9.23;6.93;;;;;;;-145.00;66.86;72618.28;4973180;28;20057;-76
2023/08/15 03:28:43;;;;;;;8.40;6.90;;;;;;;-145.00;67.01;72630.75;4976453;28;20052;-76
2023/08/15 03:31:09;;;;;;;8.13;6.22;;;;;;;-145.00;67.35;72639.09;4952138;28;20051;-76
2023/08/15 03:33:36;;;;;;;8.40;6.55;;;;;;;-145.00;67.49;72643.25;4969621;28;20053;-76
2023/08/15 03:36:03;;;;;;;7.13;6.13;;;;;;;-145.00;67.72;72647.41;4971814;28;20046;-76
2023/08/15 03:38:30;;;;;;;8.05;7.00;;;;;;;-145.00;67.82;72639.09;4972322;28;20070;-75
2023/08/15 03:41:05;;;;;;;8.35;7.00;;;;;;;-145.00;67.94;72651.59;4972468;28;20517;-76
2023/08/15 03:43:33;;;;;;;9.32;6.85;;;;;;;-145.00;67.37;72647.41;4969587;28;20043;-76
2023/08/15 03:46:00;;;;;;;7.90;6.35;;;;;;;-145.00;67.49;72643.25;4972458;28;20394;-76
2023/08/15 03:48:29;;;;;;;8.65;6.40;;;;;;;-145.00;67.41;72651.59;4973052;28;20042;-76
2023/08/15 03:50:57;;;;;;;11.07;6.68;;;;;;;-145.00;67.32;72651.59;4976342;28;20043;-76
2023/08/15 03:53:23;;;;;;;7.38;6.20;;;;;;;-145.00;67.18;72649.50;4971446;28;20403;-76
2023/08/15 03:55:50;;;;;;;7.75;5.70;;;;;;;-145.00;67.15;72657.81;4971578;28;20047;-76
2023/08/15 03:58:19;;;;;;;7.65;6.00;;;;;;;-145.00;66.96;72649.50;4972406;28;20062;-76
2023/08/15 04:00:45;;;;;;;7.38;6.63;;;;;;;-145.00;66.93;72643.25;4989000;28;20049;-76
2023/08/15 04:03:14;;;;;;;6.70;6.00;;;;;;;-145.00;66.69;72643.25;4975200;28;20126;-76
2023/08/15 04:05:44;;;;;;;6.78;6.07;;;;;;;-145.00;66.60;72643.25;4975757;28;20430;-76
2023/08/15 04:08:11;;;;;;;7.30;6.22;;;;;;;-145.00;66.86;72647.41;4978834;28;20054;-77
2023/08/15 04:10:39;;;;;;;7.00;6.22;;;;;;;-145.00;67.01;72657.81;4977415;28;20599;-76
2023/08/15 04:13:06;;;;;;;8.77;7.00;;;;;;;-145.00;67.76;72689.06;4977179;28;20109;-76
2023/08/15 04:15:34;;;;;;;9.45;6.35;;;;;;;-145.00;67.20;72668.22;4977383;28;20101;-76
2023/08/15 04:18:01;;;;;;;9.10;6.60;;;;;;;-145.00;66.97;72664.06;4976334;28;20051;-75
2023/08/15 04:20:27;;;;;;;7.43;6.15;;;;;;;-145.00;66.84;72664.06;4996229;28;20409;-76
2023/08/15 04:22:54;;;;;;;10.73;6.38;;;;;;;-145.00;66.96;72666.16;4997494;28;20046;-76
2023/08/15 04:25:20;;;;;;;6.97;6.28;;;;;;;-145.00;66.80;72670.31;4998489;28;20062;-76
2023/08/15 04:27:47;;;;;;;7.75;6.05;;;;;;;-145.00;66.97;72674.47;4986322;28;20045;-76
2023/08/15 04:30:14;;;;;;;7.90;6.05;;;;;;;-145.00;67.00;72670.31;4968983;28;20052;-76
2023/08/15 04:32:42;;;;;;;7.28;6.00;;;;;;;-145.00;66.67;72664.06;4959646;28;20414;-76
2023/08/15 04:35:09;;;;;;;8.38;5.93;;;;;;;-145.00;66.72;72664.06;4978117;28;20050;-76
2023/08/15 04:37:36;;;;;;;8.20;6.00;;;;;;;-145.00;66.71;72664.06;4980842;28;20049;-76
2023/08/15 04:40:02;;;;;;;8.20;6.05;;;;;;;-145.00;66.54;72668.22;4979820;28;20061;-75
2023/08/15 04:42:29;;;;;;;7.07;5.72;;;;;;;-145.00;66.92;72674.47;4981189;28;20043;-76
2023/08/15 04:44:55;;;;;;;7.05;5.85;;;;;;;-145.00;66.81;72676.56;4978066;28;20047;-76
2023/08/15 04:47:22;;;;;;;7.90;6.00;;;;;;;-145.00;66.73;72676.56;4976129;28;20501;-75
2023/08/15 04:49:50;;;;;;;6.22;5.63;;;;;;;-145.00;66.34;72668.22;4975130;28;20047;-75
2023/08/15 04:52:16;;;;;;;7.80;5.68;;;;;;;-145.00;66.58;72676.56;4975049;28;20503;-75
2023/08/15 04:54:43;;;;;;;6.35;5.43;;;;;;;-145.00;66.35;72659.91;4974950;28;20053;-75
2023/08/15 04:57:09;;;;;;;7.45;5.57;;;;;;;-145.00;66.06;72655.75;4974674;28;20047;-75
2023/08/15 04:59:36;;;;;;;7.45;5.72;;;;;;;-145.00;65.62;72655.75;4969206;28;20042;-76
2023/08/15 05:02:02;;;;;;;5.80;5.13;;;;;;;-145.00;65.66;72647.41;4965014;28;20047;-74
2023/08/15 05:04:29;;;;;;;6.70;5.38;;;;;;;-145.00;65.18;72647.41;4962316;28;20042;-75
2023/08/15 05:07:00;;;;;;;5.72;5.07;;;;;;;-145.00;64.94;72645.34;4974225;28;20598;-76
2023/08/15 05:09:27;;;;;;;6.50;5.20;;;;;;;-145.00;64.68;72639.09;4974903;28;20045;-75
2023/08/15 05:11:53;;;;;;;5.78;4.82;;;;;;;-145.00;64.62;72639.09;4974870;28;20047;-76
2023/08/15 05:14:20;;;;;;;8.10;5.10;;;;;;;-145.00;64.04;72639.09;4974453;28;20055;-76
2023/08/15 05:16:46;;;;;;;7.15;5.00;;;;;;;-145.00;63.82;72637.00;4974645;28;20046;-75
2023/08/15 05:19:13;;;;;;;6.43;5.05;;;;;;;-145.00;63.60;72630.75;4974027;28;20047;-75
2023/08/15 05:21:40;;;;;;;7.68;4.95;;;;;;;-145.00;63.59;72634.94;4974723;28;20057;-75
2023/08/15 05:24:09;;;;;;;6.35;4.93;;;;;;;-145.00;63.40;72643.25;4963032;28;20110;-74
2023/08/15 05:26:35;;;;;;;5.72;4.90;;;;;;;-145.00;62.72;72655.75;4961382;28;20129;-75
2023/08/15 05:29:02;;;;;;;5.20;4.70;;;;;;;-145.00;62.94;72695.28;4970289;28;20051;-74
2023/08/15 05:31:29;;;;;;;5.25;4.68;;;;;;;-145.00;61.95;72655.75;4954362;28;20047;-75
2023/08/15 05:33:55;;;;;;;6.25;4.63;;;;;;;-145.00;60.61;72653.66;4955099;28;20043;-74
2023/08/15 05:36:21;;;;;;;7.38;4.93;;;;;;;-145.00;60.40;72645.34;4955525;28;20399;-75
2023/08/15 05:38:48;;;;;;;6.25;4.50;;;;;;;-145.00;60.47;72643.25;4974199;28;20053;-75
2023/08/15 05:41:16;;;;;;;6.18;4.50;;;;;;;-145.00;60.25;72626.59;4973800;28;20050;-75
2023/08/15 05:43:43;;;;;;;5.40;4.40;;;;;;;-145.00;59.71;72626.59;4974147;28;20085;-75
2023/08/15 05:46:09;;;;;;;5.32;4.00;;;;;;;-145.00;58.94;72601.63;4973898;28;20043;-75
2023/08/15 05:48:37;;;;;;;5.10;3.80;;;;;;;-145.00;58.82;72589.13;4975279;28;20038;-75
2023/08/15 05:51:03;;;;;;;6.75;4.45;;;;;;;-145.00;58.32;72574.56;4973964;28;20097;-75
2023/08/15 05:53:30;;;;;;;5.30;3.78;;;;;;;-145.00;57.79;72560.00;4973232;28;20705;-75
2023/08/15 05:55:56;;;;;;;5.10;3.67;;;;;;;-145.00;57.81;72560.00;4973312;28;20047;-75
2023/08/15 05:58:24;;;;;;;7.70;3.85;;;;;;;-145.00;56.50;72547.50;4981858;28;20049;-75
2023/08/15 06:00:54;;;;;;;4.68;3.92;;;;;;;-145.00;56.47;72535.00;4961584;28;20054;-75
2023/08/15 06:03:20;;;;;;;4.05;3.58;;;;;;;-145.00;56.12;72547.50;4955776;28;20043;-75
2023/08/15 06:05:47;;;;;;;5.07;4.13;;;;;;;-145.00;56.62;72547.50;4964646;28;20046;-73
2023/08/15 06:08:13;;;;;;;5.18;3.78;;;;;;;-145.00;55.92;72535.00;4973247;28;20114;-72
2023/08/15 06:10:40;;;;;;;4.15;3.33;;;;;;;-145.00;55.48;72522.53;4973945;28;20049;-73
2023/08/15 06:13:07;;;;;;;6.30;3.65;;;;;;;-145.00;54.47;72493.38;4973940;28;20051;-73
2023/08/15 06:15:36;;;;;;;3.78;3.38;;;;;;;-145.00;54.47;72489.22;4974545;28;20047;-73
2023/08/15 06:18:02;;;;;;;7.88;3.85;;;;;;;-145.00;54.84;72501.69;4974096;28;20049;-73
2023/08/15 06:20:29;;;;;;;6.25;3.47;;;;;;;-145.00;53.64;72464.22;4960732;28;20527;-74
2023/08/15 06:22:55;;;;;;;5.93;3.72;;;;;;;-145.00;53.34;72460.06;4961804;28;20039;-73
2023/08/15 06:25:22;;;;;;;3.95;3.22;;;;;;;-145.00;52.75;72495.47;4969969;28;20051;-73
2023/08/15 06:27:48;;;;;;;4.88;3.25;;;;;;;-145.00;52.10;72493.38;4985019;28;20052;-73
2023/08/15 06:30:15;;;;;;;4.38;3.30;;;;;;;-145.00;51.71;72482.97;4979791;28;20081;-73
2023/08/15 06:32:44;;;;;;;5.43;2.78;;;;;;;-145.00;52.31;72480.88;4970412;28;20078;-73
2023/08/15 06:35:11;;;;;;;3.97;3.35;;;;;;;-145.00;52.16;72476.72;4973790;28;20126;-73
2023/08/15 06:37:37;;;;;;;5.57;3.05;;;;;;;-145.00;51.01;72468.41;4982507;28;20121;-74
2023/08/15 06:40:05;;;;;;;5.80;3.17;;;;;;;-145.00;51.24;72458.00;4992299;28;20141;-72
2023/08/15 06:42:31;;;;;;;4.13;2.80;;;;;;;-145.00;50.64;72408.03;4992586;28;20042;-73
2023/08/15 06:45:11;;;;;;;4.82;3.20;;;;;;;-145.00;50.65;72410.13;4992158;28;20057;-72
2023/08/15 06:47:37;;;;;;;4.10;3.22;;;;;;;-145.00;51.13;72410.13;4953911;28;20054;-73
2023/08/15 06:50:08;;;;;;;7.00;3.25;;;;;;;-145.00;50.52;72410.13;4982006;28;20058;-72
2023/08/15 06:52:34;;;;;;;4.75;3.10;;;;;;;-145.00;50.25;72410.13;4992534;28;20046;-72
2023/08/15 06:55:03;;;;;;;4.80;3.30;;;;;;;-145.00;50.52;72395.53;4991788;28;20115;-73
2023/08/15 06:57:30;;;;;;;6.05;3.40;;;;;;;-145.00;49.18;72397.63;4992420;28;20042;-72
2023/08/15 06:59:56;;;;;;;3.72;3.15;;;;;;;-145.00;50.28;72391.38;4969814;28;20047;-72
2023/08/15 07:02:23;;;;;;;3.05;2.75;;;;;;;-145.00;49.65;72383.06;4955485;28;20043;-72
2023/08/15 07:04:50;;;;;;;3.47;3.05;;;;;;;-145.00;49.02;72360.16;4970721;28;20039;-72
2023/08/15 07:07:18;;;;;;;4.75;3.13;;;;;;;-145.00;49.10;72380.97;4974736;28;20764;-72
2023/08/15 07:09:45;;;;;;;4.05;3.53;;;;;;;-145.00;49.89;72380.97;4975076;28;20130;-72
2023/08/15 07:12:12;;;;;;;4.28;3.00;;;;;;;-145.00;49.56;72351.84;4973380;28;20082;-72
2023/08/15 07:14:38;;;;;;;6.38;3.38;;;;;;;-145.00;49.35;72360.16;4974252;28;20688;-74
2023/08/15 07:17:05;;;;;;;4.75;3.47;;;;;;;-145.00;49.93;72360.16;4973118;28;20055;-72
2023/08/15 07:19:32;;;;;;;5.32;3.67;;;;;;;-145.00;49.80;72364.31;4973989;28;20045;-72
2023/08/15 07:21:58;;;;;;;5.97;3.58;;;;;;;-145.00;50.02;72326.84;4974524;28;20039;-73
2023/08/15 07:24:26;;;;;;;5.25;3.50;;;;;;;-145.00;49.13;72341.41;4972355;28;20057;-72
2023/08/15 07:26:52;;;;;;;5.63;3.70;;;;;;;-145.00;48.99;72308.13;4963355;28;20050;-72
2023/08/15 07:29:19;;;;;;;4.45;3.58;;;;;;;-145.00;48.50;72320.59;4960176;28;20069;-72
2023/08/15 07:31:45;;;;;;;4.78;3.80;;;;;;;-145.00;49.49;72333.09;4951704;28;20127;-72
2023/08/15 07:34:12;;;;;;;5.60;3.30;;;;;;;-145.00;49.94;72310.19;4952470;28;20047;-73
2023/08/15 07:36:41;;;;;;;5.97;3.90;;;;;;;-145.00;49.04;72316.44;4954302;28;20035;-73
2023/08/15 07:39:08;;;;;;;4.40;3.60;;;;;;;-145.00;48.85;72260.25;4970290;28;20046;-73
2023/08/15 07:41:36;;;;;;;7.68;3.80;;;;;;;-145.00;47.76;72183.22;4970842;28;20427;-73
2023/08/15 07:44:03;;;;;;;5.85;3.85;;;;;;;-145.00;46.80;72079.16;4970670;28;20043;-72
2023/08/15 07:46:29;;;;;;;5.55;3.60;;;;;;;-145.00;46.33;72058.34;4972068;28;20557;-71
2023/08/15 07:48:56;;;;;;;5.95;4.20;;;;;;;-145.00;45.61;72068.75;4975144;28;20039;-74
2023/08/15 07:51:22;;;;;;;6.95;4.28;;;;;;;-145.00;46.54;72093.72;4970884;28;20045;-72
2023/08/15 07:53:49;;;;;;;4.53;3.80;;;;;;;-145.00;45.52;72022.97;4971282;28;20051;-73
2023/08/15 07:56:16;;;;;;;5.70;3.70;;;;;;;-145.00;44.99;71970.94;4968185;28;20042;-73
2023/08/15 07:58:44;;;;;;;4.75;3.63;;;;;;;-145.00;44.41;71900.16;4968830;28;20043;-74
2023/08/15 08:01:11;;;;;;;7.95;4.53;;;;;;;-145.00;44.83;71960.53;4946649;28;20090;-72
2023/08/15 08:03:39;;;;;;;5.60;4.25;;;;;;;-145.00;44.48;71952.19;4951881;28;20050;-73
2023/08/15 08:06:06;;;;;;;6.45;4.10;;;;;;;-145.00;45.41;71941.78;4951752;28;20052;-72
2023/08/15 08:08:32;;;;;;;4.82;4.10;;;;;;;-145.00;44.18;71871.03;4951978;28;20043;-73
2023/08/15 08:10:59;;;;;;;7.57;4.07;;;;;;;-145.00;43.90;71829.41;4958597;28;20417;-73
2023/08/15 08:13:25;;;;;;;6.72;4.18;;;;;;;-145.00;44.38;71802.34;4970508;28;20050;-72
2023/08/15 08:15:53;;;;;;;6.95;4.65;;;;;;;-145.00;42.85;71819.00;4971577;28;20043;-72
2023/08/15 08:18:20;;;;;;;5.70;4.18;;;;;;;-145.00;42.65;71823.16;4971041;28;20053;-72
2023/08/15 08:20:46;;;;;;;6.22;4.40;;;;;;;-145.00;42.97;71839.81;4971484;28;20047;-72
2023/08/15 08:23:13;;;;;;;4.82;4.28;;;;;;;-145.00;43.15;71783.63;4970647;28;20055;-72
2023/08/15 08:25:40;;;;;;;7.55;4.47;;;;;;;-145.00;43.50;71777.38;4965416;28;20092;-73
2023/08/15 08:28:07;;;;;;;9.65;4.60;;;;;;;-145.00;42.38;71756.56;4951301;28;20505;-72
2023/08/15 08:30:34;;;;;;;7.20;4.63;;;;;;;-145.00;41.91;71798.19;4951497;28;20043;-72
2023/08/15 08:33:02;;;;;;;5.75;3.92;;;;;;;-145.00;42.12;71748.22;4951225;28;20052;-72
2023/08/15 08:35:28;;;;;;;4.63;4.20;;;;;;;-145.00;41.29;71658.75;4951219;28;20070;-73
2023/08/15 08:37:56;;;;;;;8.07;4.72;;;;;;;-145.00;41.34;71631.69;4962099;28;20050;-72
2023/08/15 08:40:23;;;;;;;7.25;4.72;;;;;;;-145.00;40.69;71625.44;4970499;28;20063;-73
2023/08/15 08:42:49;;;;;;;5.50;4.85;;;;;;;-145.00;41.43;71677.47;4970899;28;20037;-74
2023/08/15 08:45:16;;;;;;;6.53;4.15;;;;;;;-145.00;41.34;71596.31;4970286;28;20046;-74
2023/08/15 08:47:46;;;;;;;4.53;4.03;;;;;;;-145.00;42.07;71627.53;4970873;28;20050;-74
2023/08/15 08:50:14;;;;;;;6.78;4.50;;;;;;;-145.00;42.25;71700.38;4969771;28;20130;-73
2023/08/15 08:52:41;;;;;;;8.57;4.47;;;;;;;-145.00;41.85;71669.16;4973358;28;20082;-75
2023/08/15 08:55:09;;;;;;;6.50;4.60;;;;;;;-145.00;41.94;71615.03;4972295;28;20145;-72
2023/08/15 08:57:37;;;;;;;7.32;4.80;;;;;;;-145.00;41.17;71579.66;4954830;28;20051;-73
2023/08/15 09:00:07;;;;;;;7.03;5.10;;;;;;;-145.00;42.34;71744.06;4954017;28;20059;-73
2023/08/15 09:02:34;;;;;;;6.25;4.68;;;;;;;-145.00;42.44;71723.25;4956772;28;20079;-72
2023/08/15 09:05:03;;;;;;;6.32;4.07;;;;;;;-145.00;41.05;71604.63;4961736;28;20043;-74
2023/08/15 09:07:32;;;;;;;6.88;4.70;;;;;;;-145.00;42.14;71627.53;4973715;28;20051;-74
2023/08/15 09:09:58;;;;;;;4.72;4.25;;;;;;;-145.00;41.51;71615.03;4973650;28;20499;-74
2023/08/15 09:12:35;;;;;;;7.78;4.15;;;;;;;-145.00;40.58;71565.09;4973492;28;20058;-74
2023/08/15 09:15:04;;;;;;;7.88;4.88;;;;;;;-145.00;39.74;71540.13;4972396;28;20062;-74
2023/08/15 09:17:31;;;;;;;6.93;4.63;;;;;;;-145.00;40.66;71513.06;4973834;28;20392;-74
2023/08/15 09:20:08;;;;;;;7.05;4.60;;;;;;;-145.00;40.72;71529.72;4973702;28;20522;-74
2023/08/15 09:22:38;;;;;;;7.88;4.63;;;;;;;-145.00;40.08;71471.44;4973573;28;20066;-74
2023/08/15 09:25:05;;;;;;;5.68;4.70;;;;;;;-145.00;40.46;71446.47;4971978;28;20076;-73
2023/08/15 09:27:31;;;;;;;4.68;4.10;;;;;;;-145.00;39.74;71415.25;4972993;28;20138;-72
2023/08/15 09:29:58;;;;;;;8.18;4.90;;;;;;;-145.00;38.88;71425.66;4961276;28;20040;-73
2023/08/15 09:32:24;;;;;;;7.43;4.60;;;;;;;-145.00;39.05;71438.16;4953497;28;20043;-74
2023/08/15 09:34:51;;;;;;;6.50;4.43;;;;;;;-145.00;39.51;71440.22;4967699;28;20038;-74
2023/08/15 09:37:21;;;;;;;5.57;4.00;;;;;;;-145.00;39.21;71436.06;4972688;28;20047;-72
2023/08/15 09:39:49;;;;;;;6.20;4.50;;;;;;;-145.00;39.48;71442.31;4973065;28;20438;-74
2023/08/15 09:42:19;;;;;;;6.72;4.75;;;;;;;-145.00;38.75;71409.00;4972745;28;20047;-74
2023/08/15 09:44:46;;;;;;;5.20;4.28;;;;;;;-145.00;38.54;71394.44;4973134;28;20051;-74
2023/08/15 09:47:14;;;;;;;6.28;4.57;;;;;;;-145.00;39.50;71402.78;4972814;28;20051;-74
2023/08/15 09:49:42;;;;;;;6.50;5.03;;;;;;;-145.00;38.33;71419.41;4972670;28;20137;-74
2023/08/15 09:52:10;;;;;;;7.10;4.70;;;;;;;-145.00;39.09;71413.19;4972602;28;20085;-73
2023/08/15 09:54:37;;;;;;;6.68;4.65;;;;;;;-145.00;39.39;71384.03;4972796;28;20050;-74
2023/08/15 09:57:05;;;;;;;5.53;4.78;;;;;;;-145.00;39.18;71352.81;4956039;28;20051;-73
2023/08/15 09:59:32;;;;;;;5.10;4.60;;;;;;;-145.00;38.85;71338.25;4953470;28;20106;-72
2023/08/15 10:02:01;;;;;;;5.70;4.65;;;;;;;-145.00;38.63;71344.50;4959907;28;20046;-75
2023/08/15 10:04:32;;;;;;;5.15;4.65;;;;;;;-145.00;39.56;71332.00;4971121;28;20043;-74
2023/08/15 10:06:59;;;;;;;6.05;4.50;;;;;;;-145.00;38.27;71313.28;4972717;28;20046;-73
2023/08/15 10:09:27;;;;;;;6.22;4.72;;;;;;;-145.00;37.61;71275.84;4972226;28;20053;-73
2023/08/15 10:11:55;;;;;;;5.55;4.43;;;;;;;-145.00;37.83;71244.63;4972821;28;20047;-72
2023/08/15 10:14:23;;;;;;;6.22;4.63;;;;;;;-145.00;36.96;71232.13;4971866;28;21600;-75
2023/08/15 10:16:50;;;;;;;5.57;4.45;;;;;;;-145.00;37.29;71211.31;4972568;28;20050;-74
2023/08/15 10:19:17;;;;;;;5.53;4.60;;;;;;;-145.00;36.81;71219.66;4972290;28;20145;-74
2023/08/15 10:21:47;;;;;;;7.38;4.90;;;;;;;-145.00;37.40;71225.88;4972633;28;20043;-74
2023/08/15 10:24:14;;;;;;;5.15;4.53;;;;;;;-145.00;37.21;71219.66;4972010;28;20042;-74
2023/08/15 10:26:40;;;;;;;5.93;4.63;;;;;;;-145.00;37.13;71248.78;4969334;28;20525;-74
2023/08/15 10:29:07;;;;;;;5.78;4.55;;;;;;;-145.00;38.50;71244.63;4965944;28;20084;-74
2023/08/15 10:31:39;;;;;;;7.82;4.90;;;;;;;-145.00;37.21;71223.81;4953096;28;20051;-73
2023/08/15 10:34:09;;;;;;;6.57;4.32;;;;;;;-145.00;37.65;71236.28;4952461;28;20071;-74
2023/08/15 10:36:36;;;;;;;5.35;4.85;;;;;;;-145.00;37.43;71223.81;4952984;28;20385;-75
2023/08/15 10:39:06;;;;;;;5.20;4.70;;;;;;;-145.00;38.02;71213.41;4966042;28;20074;-73
2023/08/15 10:41:34;;;;;;;5.43;4.93;;;;;;;-145.00;37.70;71236.28;4971814;28;20050;-74
2023/08/15 10:44:04;;;;;;;6.30;4.65;;;;;;;-145.00;37.85;71252.94;4972106;28;20039;-74
2023/08/15 10:46:31;;;;;;;5.55;4.65;;;;;;;-145.00;38.09;71261.25;4971375;28;20053;-74
2023/08/15 10:49:07;;;;;;;5.78;4.75;;;;;;;-145.00;38.28;71248.78;4972115;28;20499;-74
2023/08/15 10:51:35;;;;;;;6.32;4.72;;;;;;;-145.00;37.66;71232.13;4971632;28;20046;-74
2023/08/15 10:54:03;;;;;;;5.47;4.43;;;;;;;-145.00;37.21;71211.31;4971540;28;20053;-74
2023/08/15 10:56:31;;;;;;;5.32;4.75;;;;;;;-145.00;37.02;71184.28;4960075;28;20043;-74
2023/08/15 10:58:59;;;;;;;5.35;4.60;;;;;;;-145.00;37.03;71182.19;4952602;28;20051;-74
2023/08/15 11:01:28;;;;;;;6.20;5.00;;;;;;;-145.00;36.42;71211.31;4954104;28;20046;-74
2023/08/15 11:03:56;;;;;;;5.88;4.88;;;;;;;-145.00;36.74;71161.38;4971481;28;20050;-74
2023/08/15 11:06:25;;;;;;;5.43;4.93;;;;;;;-145.00;37.11;71171.78;4971102;28;20050;-73
2023/08/15 11:08:53;;;;;;;7.40;4.60;;;;;;;-145.00;36.84;71186.34;4971773;28;20047;-75
2023/08/15 11:11:19;;;;;;;4.68;4.28;;;;;;;-145.00;36.44;71203.00;4971083;28;20047;-74
2023/08/15 11:13:47;;;;;;;5.50;4.60;;;;;;;-145.00;37.03;71223.81;4971212;28;20059;-74
2023/08/15 11:16:15;;;;;;;7.38;4.80;;;;;;;-145.00;37.29;71219.66;4971321;28;20053;-72
2023/08/15 11:18:42;;;;;;;5.00;4.50;;;;;;;-145.00;36.69;71213.41;4971622;28;20049;-73